Terminal Aerodrome Forecast
Issued by NWS Knoxville/Tri Cities, TN

Home | Current Version | Previous Version | Text Only | Print | Product List | Glossary On
Versions: 1 2 3 4 5 6 7 8 9 10 11 12 13 14 15 16 17 18 19 20 21 22 23 24 25 26 27 28 29 30 31 32
000
FTUS44 KMRX 312325
TAFTRI
TAF
KTRI 312325Z 0100/0124 14002KT P6SM SCT040 BKN120
     FM010600 05003KT P6SM VCSH OVC080
     FM010800 VRB03KT 4SM -RA OVC040
     FM011000 04005KT 3SM -RA BKN020
     FM011300 09003KT 5SM BR SCT020 BKN100
     FM011800 11005KT P6SM VCSH SCT040 BKN100=

USA.gov is the U.S. government's official web portal to all federal, state and local government web resources and services.